Terminal Aerodrome Forecast
Issued by NWS Sterling, VA

Current Version | Previous Version | Text Only | Print | Product List | Glossary Off
Versions: 1 2 3 4 5 6 7 8 9 10 11 12 13 14 15 16 17 18 19 20 21 22 23 24

000
FTUS41 KLWX 300902 AAA
TAFDCA
TAF AMD
KDCA 300902Z 3009/3106 20003KT P6SM SCT120
     FM301000 VRB03KT P6SM BKN100
     FM301400 16007KT 5SM SHRA VCTS OVC025CB
     FM301800 16007KT P6SM -SHRA VCTS OVC050CB
     FM302200 16006KT 5SM SHRA VCTS OVC060CB
     FM310200 15005KT P6SM -SHRA VCTS OVC060CB=

USA.gov is the U.S. government's official web portal to all federal, state and local government web resources and services.